Time;durP1;ratioP1;P1;durP2;ratioP2;P2;SDS_P1;SDS_P2;PMS_P1;PMS_P2;Temp;Humidity;BMP_temperature;BMP_pressure;BME280_temperature;BME280_humidity;BME280_pressure;Samples;Min_cycle;Max_cycle;Signal;HPM_P1;HPM_P2
2022/07/24 00:00:35;;;;;;;14.63;13.13;;;22.40;41.80;;;;;;5052679;28;20181;-45
2022/07/24 00:03:01;;;;;;;15.37;12.50;;;22.40;41.90;;;;;;5052252;28;20436;-45
2022/07/24 00:05:27;;;;;;;16.20;12.80;;;22.30;41.90;;;;;;5052124;28;20452;-45
2022/07/24 00:07:53;;;;;;;14.63;13.10;;;22.30;41.90;;;;;;5052522;28;20544;-44
2022/07/24 00:10:19;;;;;;;15.03;12.33;;;22.30;41.90;;;;;;5052111;28;20949;-47
2022/07/24 00:12:44;;;;;;;18.13;13.13;;;22.20;42.00;;;;;;5052266;28;20193;-45
2022/07/24 00:15:10;;;;;;;20.47;12.53;;;22.20;42.00;;;;;;5052185;28;20173;-45
2022/07/24 00:17:37;;;;;;;19.90;13.40;;;22.10;42.00;;;;;;5052020;28;20169;-45
2022/07/24 00:20:04;;;;;;;16.50;13.20;;;22.10;42.00;;;;;;5052122;28;20937;-44
2022/07/24 00:22:30;;;;;;;17.47;12.93;;;22.10;42.10;;;;;;5051905;28;20479;-44
2022/07/24 00:24:56;;;;;;;15.07;13.40;;;22.10;42.10;;;;;;5051950;28;20491;-44
2022/07/24 00:27:22;;;;;;;12.93;11.27;;;22.10;41.90;;;;;;5051975;28;20232;-45
2022/07/24 00:29:47;;;;;;;13.63;12.00;;;22.00;41.90;;;;;;5052040;28;20165;-48
2022/07/24 00:32:13;;;;;;;14.13;11.20;;;22.00;42.00;;;;;;5051895;28;20199;-46
2022/07/24 00:34:39;;;;;;;16.00;13.07;;;22.00;41.90;;;;;;5052256;28;20177;-45
2022/07/24 00:37:05;;;;;;;16.93;12.50;;;22.00;41.80;;;;;;5051757;28;20180;-44
2022/07/24 00:39:31;;;;;;;16.10;12.33;;;21.90;41.90;;;;;;5051987;28;20165;-45
2022/07/24 00:41:56;;;;;;;16.10;11.80;;;21.90;42.00;;;;;;5052147;28;20173;-44
2022/07/24 00:44:22;;;;;;;16.20;12.53;;;21.80;41.80;;;;;;5056247;28;20446;-45
2022/07/24 00:46:48;;;;;;;13.93;11.37;;;21.80;41.80;;;;;;5055772;28;20173;-45
2022/07/24 00:49:16;;;;;;;16.57;11.87;;;21.80;41.70;;;;;;5055906;28;20968;-45
2022/07/24 00:51:45;;;;;;;13.80;11.10;;;21.80;41.70;;;;;;5055979;28;20914;-44
2022/07/24 00:54:12;;;;;;;12.70;11.27;;;21.80;41.80;;;;;;5055768;28;20411;-44
2022/07/24 00:56:40;;;;;;;12.23;10.97;;;21.80;41.90;;;;;;5055772;28;20439;-46
2022/07/24 00:59:06;;;;;;;12.33;10.53;;;21.80;41.90;;;;;;5055758;28;20910;-45
2022/07/24 01:01:32;;;;;;;13.57;10.67;;;21.80;41.80;;;;;;5055748;28;20412;-45
2022/07/24 01:03:58;;;;;;;11.47;10.13;;;21.70;41.80;;;;;;5055555;28;20479;-45
2022/07/24 01:06:24;;;;;;;10.47;9.20;;;21.70;41.90;;;;;;5055705;28;20184;-45
2022/07/24 01:08:51;;;;;;;13.37;8.93;;;21.70;42.00;;;;;;5055617;28;20802;-45
2022/07/24 01:11:19;;;;;;;10.53;9.20;;;21.70;41.80;;;;;;5055461;28;20416;-44
2022/07/24 01:13:46;;;;;;;11.57;7.90;;;21.60;41.70;;;;;;5055401;28;20926;-46
2022/07/24 01:16:12;;;;;;;12.20;9.20;;;21.60;41.80;;;;;;5055209;28;20415;-45
2022/07/24 01:18:37;;;;;;;10.70;8.60;;;21.50;41.80;;;;;;5055752;28;20413;-45
2022/07/24 01:21:05;;;;;;;10.23;8.77;;;21.50;41.80;;;;;;5055388;28;20180;-44
2022/07/24 01:23:31;;;;;;;9.30;8.30;;;21.50;41.80;;;;;;5055075;28;20227;-46
2022/07/24 01:25:56;;;;;;;8.80;7.73;;;21.40;41.70;;;;;;5055025;28;20422;-46
2022/07/24 01:28:23;;;;;;;11.77;9.00;;;21.40;41.60;;;;;;5055234;28;20412;-44
2022/07/24 01:30:49;;;;;;;9.48;7.30;;;21.40;41.60;;;;;;5055139;28;20499;-44
2022/07/24 01:33:15;;;;;;;9.67;8.70;;;21.40;41.70;;;;;;5055111;28;20273;-44
2022/07/24 01:35:41;;;;;;;10.77;8.60;;;21.30;41.70;;;;;;5054867;28;21114;-45
2022/07/24 01:38:08;;;;;;;8.93;7.80;;;21.20;41.80;;;;;;5054982;28;20404;-45
2022/07/24 01:40:34;;;;;;;9.17;7.60;;;21.20;41.80;;;;;;5054983;28;20395;-45
2022/07/24 01:43:00;;;;;;;8.50;7.60;;;21.20;41.70;;;;;;5054869;28;21014;-44
2022/07/24 01:45:26;;;;;;;10.43;7.47;;;21.10;41.90;;;;;;5054837;28;20189;-46
2022/07/24 01:47:51;;;;;;;8.63;6.03;;;21.10;41.80;;;;;;5054692;28;20964;-45
2022/07/24 01:50:17;;;;;;;8.40;6.77;;;21.10;41.70;;;;;;5054699;28;20169;-44
2022/07/24 01:52:44;;;;;;;8.30;7.13;;;21.00;41.60;;;;;;5054880;28;20660;-47
2022/07/24 01:55:10;;;;;;;8.43;6.60;;;21.00;41.70;;;;;;5053874;28;20169;-45
2022/07/24 01:57:36;;;;;;;10.03;7.90;;;21.00;41.70;;;;;;5054702;28;20507;-45
2022/07/24 02:00:05;;;;;;;9.03;7.07;;;20.90;41.70;;;;;;5054546;28;20519;-45
2022/07/24 02:02:31;;;;;;;7.50;5.90;;;20.80;41.70;;;;;;5054798;28;20447;-45
2022/07/24 02:04:56;;;;;;;7.97;6.13;;;20.80;41.90;;;;;;5054663;28;20451;-45
2022/07/24 02:07:22;;;;;;;7.07;6.47;;;20.80;41.90;;;;;;5054353;28;20528;-45
2022/07/24 02:09:48;;;;;;;8.40;7.60;;;20.80;41.80;;;;;;5054519;28;20251;-45
2022/07/24 02:12:14;;;;;;;7.17;6.37;;;20.80;41.70;;;;;;5054392;28;20193;-45
2022/07/24 02:14:39;;;;;;;6.70;6.00;;;20.80;41.70;;;;;;5054758;28;20188;-46
2022/07/24 02:17:06;;;;;;;7.57;6.60;;;20.70;41.80;;;;;;5054151;28;20685;-45
2022/07/24 02:19:32;;;;;;;8.57;7.00;;;20.70;41.80;;;;;;5054222;28;20178;-46
2022/07/24 02:21:57;;;;;;;7.00;5.90;;;20.60;41.70;;;;;;5054098;28;20180;-44
2022/07/24 02:24:23;;;;;;;13.13;6.80;;;20.50;41.80;;;;;;5052845;28;20200;-44
2022/07/24 02:26:49;;;;;;;9.83;6.77;;;20.50;41.70;;;;;;5053967;28;20174;-44
2022/07/24 02:29:15;;;;;;;9.82;6.40;;;20.50;41.70;;;;;;5054438;28;20173;-44
2022/07/24 02:31:41;;;;;;;8.37;6.80;;;20.50;41.80;;;;;;5054340;28;20180;-45
2022/07/24 02:34:07;;;;;;;9.40;7.43;;;20.40;41.70;;;;;;5052667;28;20833;-45
2022/07/24 02:36:33;;;;;;;7.30;5.80;;;20.40;41.90;;;;;;5054013;28;20252;-45
2022/07/24 02:38:59;;;;;;;7.82;6.43;;;20.40;41.90;;;;;;5053888;28;20657;-45
2022/07/24 02:41:25;;;;;;;6.50;5.50;;;20.40;41.80;;;;;;5053918;28;20212;-45
2022/07/24 02:43:50;;;;;;;9.47;7.03;;;20.40;41.80;;;;;;5053670;28;20668;-45
2022/07/24 02:46:16;;;;;;;7.17;5.80;;;20.30;41.90;;;;;;5053697;28;20180;-45
2022/07/24 02:48:42;;;;;;;8.50;6.13;;;20.30;42.00;;;;;;5053582;28;20204;-44
2022/07/24 02:51:08;;;;;;;8.27;7.47;;;20.20;42.00;;;;;;5053675;28;20169;-44
2022/07/24 02:53:33;;;;;;;7.07;5.87;;;20.20;42.00;;;;;;5053584;28;20243;-44
2022/07/24 02:55:59;;;;;;;8.60;7.37;;;20.20;42.10;;;;;;5053379;28;20212;-44
2022/07/24 02:58:25;;;;;;;6.67;5.57;;;20.10;42.10;;;;;;5053506;28;20174;-45
2022/07/24 03:00:51;;;;;;;6.70;5.47;;;20.10;42.10;;;;;;5053517;28;20180;-45
2022/07/24 03:03:16;;;;;;;6.20;5.60;;;20.10;42.10;;;;;;5053595;28;20196;-44
2022/07/24 03:05:42;;;;;;;7.40;5.40;;;20.10;42.00;;;;;;5053313;28;20197;-45
2022/07/24 03:08:08;;;;;;;8.07;6.13;;;20.10;41.90;;;;;;5053624;28;20179;-45
2022/07/24 03:10:34;;;;;;;8.03;5.83;;;20.10;41.90;;;;;;5053356;28;20767;-45
2022/07/24 03:13:00;;;;;;;6.30;5.70;;;20.10;42.00;;;;;;5053460;28;20542;-45
2022/07/24 03:15:26;;;;;;;6.40;5.50;;;20.00;41.80;;;;;;5053150;28;20951;-44
2022/07/24 03:17:54;;;;;;;6.73;6.03;;;20.00;41.90;;;;;;5052928;28;20510;-46
2022/07/24 03:20:22;;;;;;;7.22;5.03;;;20.00;41.90;;;;;;5053171;28;20403;-44
2022/07/24 03:22:48;;;;;;;5.63;4.85;;;19.90;41.90;;;;;;5052817;28;20213;-46
2022/07/24 03:25:14;;;;;;;6.40;5.28;;;19.90;42.00;;;;;;5052818;28;20225;-44
2022/07/24 03:27:40;;;;;;;6.57;5.73;;;19.90;42.00;;;;;;5052851;28;20570;-45
2022/07/24 03:30:07;;;;;;;9.20;6.35;;;19.90;42.10;;;;;;5052838;28;20490;-47
2022/07/24 03:32:33;;;;;;;5.65;4.90;;;19.80;42.00;;;;;;5052869;28;20197;-44
2022/07/24 03:34:59;;;;;;;6.38;5.15;;;19.80;42.10;;;;;;5052877;28;20227;-45
2022/07/24 03:37:25;;;;;;;7.30;6.00;;;19.80;42.80;;;;;;5052618;28;20584;-44
2022/07/24 03:39:51;;;;;;;5.90;4.83;;;19.80;42.10;;;;;;5052885;28;20412;-44
2022/07/24 03:42:16;;;;;;;6.83;4.77;;;19.80;42.10;;;;;;5052698;28;20548;-45
2022/07/24 03:44:42;;;;;;;6.70;6.00;;;19.70;42.10;;;;;;5052552;28;20194;-46
2022/07/24 03:47:08;;;;;;;5.90;4.50;;;19.70;42.20;;;;;;5052466;28;20252;-46
2022/07/24 03:49:34;;;;;;;7.57;5.60;;;19.70;42.10;;;;;;5052578;28;20165;-46
2022/07/24 03:52:00;;;;;;;7.00;6.17;;;19.70;42.30;;;;;;5052505;28;20180;-45
2022/07/24 03:54:26;;;;;;;5.80;5.20;;;19.70;42.30;;;;;;5051137;28;20232;-45
2022/07/24 03:56:52;;;;;;;6.77;6.07;;;19.70;42.60;;;;;;5052152;28;20439;-45
2022/07/24 03:59:18;;;;;;;6.20;5.17;;;19.70;42.40;;;;;;5052347;28;20487;-45
2022/07/24 04:01:44;;;;;;;6.22;5.63;;;19.70;42.50;;;;;;5052426;28;20412;-45
2022/07/24 04:04:10;;;;;;;5.90;4.78;;;19.70;42.50;;;;;;5052192;28;20332;-45
2022/07/24 04:06:36;;;;;;;7.20;6.03;;;19.70;42.40;;;;;;5052408;28;20856;-45
2022/07/24 04:09:04;;;;;;;6.63;5.47;;;19.80;42.30;;;;;;5052238;28;20176;-45
2022/07/24 04:11:30;;;;;;;10.27;6.10;;;19.80;42.30;;;;;;5052253;28;20395;-45
2022/07/24 04:13:56;;;;;;;6.80;5.70;;;19.80;42.30;;;;;;5052031;28;20197;-45
2022/07/24 04:16:22;;;;;;;6.07;5.47;;;19.80;42.30;;;;;;5051883;28;20537;-44
2022/07/24 04:18:48;;;;;;;6.80;6.07;;;19.80;42.40;;;;;;5052083;28;20181;-45
2022/07/24 04:21:14;;;;;;;7.40;6.10;;;19.80;42.50;;;;;;5052105;28;20182;-45
2022/07/24 04:23:40;;;;;;;9.10;6.40;;;19.90;42.60;;;;;;5051812;28;20451;-45
2022/07/24 04:26:06;;;;;;;6.90;5.70;;;19.90;42.80;;;;;;5065177;22;20495;-49
2022/07/24 04:28:32;;;;;;;6.57;5.80;;;19.90;42.80;;;;;;5051949;28;20640;-48
2022/07/24 04:30:58;;;;;;;6.27;5.63;;;20.00;42.90;;;;;;5051944;28;20219;-49
2022/07/24 04:33:23;;;;;;;6.77;6.07;;;20.00;43.00;;;;;;5051951;28;20405;-50
2022/07/24 04:35:49;;;;;;;7.20;5.23;;;20.10;43.00;;;;;;5051830;28;20652;-50
2022/07/24 04:38:15;;;;;;;9.93;6.17;;;20.20;43.90;;;;;;5051944;28;20605;-49
2022/07/24 04:40:41;;;;;;;7.80;6.47;;;20.20;43.40;;;;;;5051864;28;20169;-50
2022/07/24 04:43:08;;;;;;;8.38;6.50;;;20.30;43.30;;;;;;5050667;28;20178;-49
2022/07/24 04:45:34;;;;;;;6.97;6.03;;;20.40;43.40;;;;;;5050154;28;20213;-50
2022/07/24 04:47:59;;;;;;;7.93;6.53;;;20.50;43.40;;;;;;5052055;28;20413;-49
2022/07/24 04:50:25;;;;;;;7.20;6.30;;;20.50;43.50;;;;;;5051791;28;20165;-48
2022/07/24 04:52:51;;;;;;;6.60;5.47;;;20.60;43.30;;;;;;5051641;28;20169;-49
2022/07/24 04:55:16;;;;;;;8.40;6.83;;;20.70;43.30;;;;;;5051711;28;20224;-50
2022/07/24 04:57:43;;;;;;;8.40;6.50;;;20.80;43.40;;;;;;5051580;28;20177;-49
2022/07/24 05:00:12;;;;;;;8.65;6.00;;;20.90;43.40;;;;;;5051570;28;20676;-48
2022/07/24 05:02:38;;;;;;;7.45;6.28;;;21.00;43.20;;;;;;5051946;28;20266;-50
2022/07/24 05:05:04;;;;;;;8.85;5.57;;;21.00;43.10;;;;;;5050883;28;20213;-49
2022/07/24 05:07:30;;;;;;;7.20;6.30;;;21.10;43.10;;;;;;5051383;28;20249;-50
2022/07/24 05:09:57;;;;;;;8.53;6.57;;;21.20;42.90;;;;;;5051584;28;20244;-49
2022/07/24 05:12:23;;;;;;;7.88;6.43;;;21.30;42.90;;;;;;5051622;28;20173;-50
2022/07/24 05:14:49;;;;;;;8.20;6.27;;;21.40;42.80;;;;;;5051419;28;20817;-50
2022/07/24 05:17:15;;;;;;;9.17;6.27;;;21.50;42.90;;;;;;5051394;28;20465;-50
2022/07/24 05:19:41;;;;;;;9.10;5.90;;;21.60;42.70;;;;;;5051553;28;20891;-50
2022/07/24 05:22:07;;;;;;;8.37;6.30;;;21.60;42.70;;;;;;5051643;28;20185;-50
2022/07/24 05:24:33;;;;;;;6.60;5.93;;;21.70;42.60;;;;;;5051331;28;20564;-49
2022/07/24 05:26:58;;;;;;;8.53;6.47;;;21.80;42.60;;;;;;5051174;28;20983;-49
2022/07/24 05:29:24;;;;;;;8.20;7.33;;;21.90;42.70;;;;;;5052343;28;20403;-49
2022/07/24 05:31:51;;;;;;;8.17;6.00;;;22.00;42.50;;;;;;5055200;28;20598;-50
2022/07/24 05:34:17;;;;;;;9.17;6.97;;;22.10;42.60;;;;;;5055233;28;20489;-49
2022/07/24 05:36:43;;;;;;;9.57;7.20;;;22.10;42.40;;;;;;5054702;28;20911;-49
2022/07/24 05:39:09;;;;;;;7.60;6.80;;;22.30;42.40;;;;;;5055258;28;20181;-50
2022/07/24 05:41:35;;;;;;;6.80;6.20;;;22.30;42.40;;;;;;5054952;28;20404;-49
2022/07/24 05:44:01;;;;;;;8.27;7.30;;;22.40;42.20;;;;;;5054834;28;20520;-49
2022/07/24 05:46:27;;;;;;;7.40;6.50;;;22.60;42.10;;;;;;5054725;28;20424;-49
2022/07/24 05:48:52;;;;;;;7.20;6.50;;;22.60;41.50;;;;;;5054899;28;20968;-50
2022/07/24 05:51:18;;;;;;;8.67;6.93;;;22.60;41.60;;;;;;5054962;28;20418;-49
2022/07/24 05:53:44;;;;;;;8.10;6.93;;;22.50;41.40;;;;;;5054751;28;20525;-50
2022/07/24 05:56:09;;;;;;;8.10;6.87;;;22.60;41.60;;;;;;5054380;28;20676;-50
2022/07/24 05:58:35;;;;;;;7.73;6.27;;;22.70;41.70;;;;;;5054691;28;20532;-49
2022/07/24 06:01:01;;;;;;;9.40;6.97;;;22.80;41.50;;;;;;5054649;28;20165;-50
2022/07/24 06:03:27;;;;;;;8.60;6.93;;;22.90;41.30;;;;;;5054669;28;20400;-51
2022/07/24 06:05:53;;;;;;;8.17;6.00;;;23.00;41.10;;;;;;5054095;28;20749;-49
2022/07/24 06:08:19;;;;;;;6.77;6.13;;;23.10;40.80;;;;;;5054435;28;20168;-50
2022/07/24 06:10:45;;;;;;;7.80;5.60;;;23.00;40.60;;;;;;5054374;28;20165;-51
2022/07/24 06:13:10;;;;;;;8.23;5.70;;;23.10;40.50;;;;;;5054345;28;20172;-49
2022/07/24 06:15:36;;;;;;;8.03;6.40;;;23.20;40.40;;;;;;5054052;28;20419;-50
2022/07/24 06:18:02;;;;;;;9.43;6.27;;;23.20;40.80;;;;;;5054548;28;20268;-49
2022/07/24 06:20:28;;;;;;;7.97;7.10;;;23.40;40.50;;;;;;5054181;28;20404;-50
2022/07/24 06:22:54;;;;;;;6.87;6.10;;;23.50;41.40;;;;;;5054172;28;20419;-49
2022/07/24 06:25:20;;;;;;;6.70;5.50;;;23.60;39.80;;;;;;5053874;28;20209;-49
2022/07/24 06:27:48;;;;;;;6.67;5.23;;;23.70;40.30;;;;;;5054098;28;20416;-50
2022/07/24 06:30:21;;;;;;;9.93;6.97;;;23.80;39.80;;;;;;5054075;28;20392;-51
2022/07/24 06:32:48;;;;;;;9.13;6.03;;;23.80;39.40;;;;;;5054306;28;20384;-50
2022/07/24 06:35:14;;;;;;;7.33;5.87;;;23.80;38.20;;;;;;5053743;28;20935;-49
2022/07/24 06:37:40;;;;;;;6.10;5.50;;;23.70;38.50;;;;;;5053865;28;20404;-50
2022/07/24 06:40:07;;;;;;;7.57;5.13;;;23.80;38.70;;;;;;5053631;28;20404;-50
2022/07/24 06:42:33;;;;;;;7.40;5.67;;;23.80;38.60;;;;;;5054120;28;20400;-50
2022/07/24 06:44:59;;;;;;;6.77;5.23;;;23.80;38.90;;;;;;5053677;28;20469;-50
2022/07/24 06:47:26;;;;;;;5.47;4.97;;;24.00;39.40;;;;;;5053577;28;20465;-50
2022/07/24 06:49:55;;;;;;;6.97;5.07;;;24.20;38.60;;;;;;5053460;28;20169;-49
2022/07/24 06:52:22;;;;;;;5.30;4.60;;;24.30;38.40;;;;;;5053652;28;20396;-49
2022/07/24 06:54:48;;;;;;;5.83;4.43;;;24.30;37.50;;;;;;5053412;28;20935;-49
2022/07/24 06:57:14;;;;;;;5.37;4.30;;;24.40;37.60;;;;;;5053394;28;20408;-50
2022/07/24 06:59:40;;;;;;;6.93;4.90;;;24.40;37.20;;;;;;5053475;28;20972;-49
2022/07/24 07:02:06;;;;;;;5.63;5.00;;;24.50;37.60;;;;;;5053471;28;20411;-49
2022/07/24 07:04:32;;;;;;;5.97;4.13;;;24.60;38.00;;;;;;5053150;28;20447;-50
2022/07/24 07:06:58;;;;;;;7.80;4.47;;;24.80;38.40;;;;;;5053080;28;20449;-49
2022/07/24 07:09:24;;;;;;;5.27;4.40;;;24.90;38.00;;;;;;5053211;28;20161;-51
2022/07/24 07:11:50;;;;;;;4.33;3.90;;;25.10;38.00;;;;;;5053240;28;20407;-50
2022/07/24 07:14:16;;;;;;;7.97;4.23;;;25.30;37.90;;;;;;5053090;28;20415;-50
2022/07/24 07:16:41;;;;;;;4.93;3.57;;;25.40;37.60;;;;;;5053166;28;20423;-50
2022/07/24 07:19:07;;;;;;;4.00;3.03;;;25.50;37.30;;;;;;5053323;28;20184;-49
2022/07/24 07:21:33;;;;;;;8.60;3.40;;;25.60;36.40;;;;;;5053311;28;20177;-49
2022/07/24 07:23:59;;;;;;;4.30;3.10;;;25.60;35.60;;;;;;5052775;28;20412;-49
2022/07/24 07:26:25;;;;;;;4.63;4.17;;;25.80;35.60;;;;;;5052662;28;20288;-51
2022/07/24 07:28:51;;;;;;;3.37;2.87;;;25.80;34.70;;;;;;5053109;28;20706;-50
2022/07/24 07:31:16;;;;;;;4.60;3.00;;;25.90;34.70;;;;;;5053176;28;20675;-50
2022/07/24 07:33:42;;;;;;;4.93;2.87;;;25.90;34.50;;;;;;5052737;28;20248;-50
2022/07/24 07:36:08;;;;;;;4.23;2.40;;;25.90;34.40;;;;;;5052513;28;20185;-50
2022/07/24 07:38:37;;;;;;;3.60;2.90;;;26.00;34.60;;;;;;5052744;28;20169;-50
2022/07/24 07:41:03;;;;;;;3.10;2.07;;;26.10;32.90;;;;;;5052644;28;20983;-49
2022/07/24 07:43:29;;;;;;;3.30;2.00;;;26.20;32.80;;;;;;5052644;28;20741;-50
2022/07/24 07:45:55;;;;;;;2.60;1.90;;;26.20;33.10;;;;;;5052349;28;20478;-49
2022/07/24 07:48:21;;;;;;;6.20;2.50;;;26.30;33.80;;;;;;5052588;28;20514;-49
2022/07/24 07:50:47;;;;;;;3.03;1.73;;;26.50;34.10;;;;;;5052522;28;20196;-50
2022/07/24 07:53:12;;;;;;;2.67;1.57;;;26.60;32.80;;;;;;5051818;28;20846;-49
2022/07/24 07:55:39;;;;;;;3.13;2.10;;;26.70;32.50;;;;;;5052211;28;20271;-51
2022/07/24 07:58:05;;;;;;;2.77;1.83;;;26.80;31.90;;;;;;5052616;28;20188;-50
2022/07/24 08:00:32;;;;;;;3.70;2.23;;;26.80;30.70;;;;;;5052525;28;20502;-51
2022/07/24 08:02:58;;;;;;;2.37;1.60;;;26.80;29.90;;;;;;5051069;28;20473;-51
2022/07/24 08:05:24;;;;;;;2.33;1.57;;;26.90;28.20;;;;;;5052278;28;20459;-50
2022/07/24 08:07:50;;;;;;;3.17;2.23;;;26.90;29.70;;;;;;5052254;28;20415;-50
2022/07/24 08:10:16;;;;;;;3.60;2.13;;;26.90;30.90;;;;;;5052841;28;20177;-49
2022/07/24 08:12:41;;;;;;;2.30;1.50;;;27.00;32.20;;;;;;5053530;28;20404;-50
2022/07/24 08:15:08;;;;;;;2.60;1.73;;;27.10;32.20;;;;;;5053880;28;20477;-49
2022/07/24 08:17:34;;;;;;;2.50;1.63;;;27.20;32.60;;;;;;5052923;28;20180;-48
2022/07/24 08:20:00;;;;;;;3.80;1.90;;;27.40;32.00;;;;;;5052944;28;20411;-51
2022/07/24 08:22:26;;;;;;;2.90;2.00;;;27.50;31.80;;;;;;5052335;28;20411;-49
2022/07/24 08:24:52;;;;;;;2.40;1.70;;;27.50;31.10;;;;;;5050644;28;20804;-49
2022/07/24 08:27:17;;;;;;;2.60;1.60;;;27.60;31.40;;;;;;5051884;28;20598;-50
2022/07/24 08:29:43;;;;;;;2.50;1.43;;;27.70;30.40;;;;;;5052034;28;20411;-50
2022/07/24 08:32:09;;;;;;;2.50;1.53;;;27.80;27.40;;;;;;5051957;28;20173;-49
2022/07/24 08:34:35;;;;;;;2.20;1.63;;;27.70;27.40;;;;;;5051875;28;20173;-49
2022/07/24 08:37:01;;;;;;;3.17;2.00;;;27.80;29.10;;;;;;5051667;28;20536;-50
2022/07/24 08:39:26;;;;;;;2.67;1.23;;;27.90;29.30;;;;;;5051957;28;20552;-51
2022/07/24 08:41:52;;;;;;;2.67;1.63;;;28.00;29.80;;;;;;5052038;28;20817;-51
2022/07/24 08:44:18;;;;;;;2.60;1.60;;;28.10;30.30;;;;;;5051994;28;20663;-50
2022/07/24 08:46:44;;;;;;;2.47;1.43;;;28.20;30.10;;;;;;5052001;28;20192;-49
2022/07/24 08:49:14;;;;;;;2.20;1.50;;;28.30;29.80;;;;;;5051700;28;20446;-50
2022/07/24 08:51:41;;;;;;;3.07;1.53;;;28.40;29.50;;;;;;5051827;28;20264;-49
2022/07/24 08:54:08;;;;;;;2.47;1.47;;;28.50;28.90;;;;;;5051746;28;20407;-50
2022/07/24 08:56:37;;;;;;;2.70;1.77;;;28.60;29.40;;;;;;5051505;28;20895;-51
2022/07/24 08:59:03;;;;;;;2.80;1.80;;;28.60;29.20;;;;;;5051730;28;20480;-51
2022/07/24 09:01:29;;;;;;;2.63;1.70;;;28.70;29.50;;;;;;5051664;28;20931;-49
2022/07/24 09:03:55;;;;;;;2.87;1.93;;;28.80;28.90;;;;;;5055486;28;20465;-50
2022/07/24 09:06:22;;;;;;;2.80;1.70;;;28.90;28.60;;;;;;5055344;28;20907;-50
2022/07/24 09:08:59;;;;;;;3.07;1.90;;;29.00;28.20;;;;;;5055616;28;20408;-50
2022/07/24 09:11:28;;;;;;;2.53;1.60;;;29.10;29.00;;;;;;5055591;28;20407;-50
2022/07/24 09:16:43;;;;;;;2.73;1.67;;;29.10;29.00;;;;;;5055877;28;20427;-50
2022/07/24 09:19:09;;;;;;;2.60;1.57;;;29.20;29.00;;;;;;5055362;28;20408;-50
2022/07/24 09:21:37;;;;;;;3.43;1.60;;;29.20;28.10;;;;;;5055352;28;20599;-50
2022/07/24 09:24:18;;;;;;;2.00;1.20;;;29.30;28.80;;;;;;5055252;28;20404;-50
2022/07/24 09:26:49;;;;;;;2.53;1.80;;;29.30;28.70;;;;;;5054885;28;20531;-50
2022/07/24 09:29:16;;;;;;;2.70;1.60;;;29.50;28.90;;;;;;5055156;28;20760;-51
2022/07/24 09:31:52;;;;;;;2.87;2.27;;;29.50;28.00;;;;;;5055192;28;20404;-51
2022/07/24 09:34:18;;;;;;;2.77;1.90;;;29.60;26.80;;;;;;5055780;28;20899;-49
2022/07/24 09:37:05;;;;;;;2.80;1.87;;;29.70;26.60;;;;;;5055609;28;20432;-50
2022/07/24 09:39:35;;;;;;;3.07;2.07;;;29.70;26.90;;;;;;5054274;28;20170;-49
2022/07/24 09:42:03;;;;;;;3.13;2.10;;;29.80;27.90;;;;;;5055955;28;20415;-49
2022/07/24 09:44:30;;;;;;;2.77;2.03;;;30.00;28.60;;;;;;5055605;28;20444;-49
2022/07/24 09:46:58;;;;;;;2.57;1.60;;;30.10;27.00;;;;;;5055271;28;20412;-49
2022/07/24 09:49:26;;;;;;;2.50;1.53;;;30.20;28.30;;;;;;5055207;28;20439;-48
2022/07/24 09:52:16;;;;;;;3.03;2.40;;;30.30;27.60;;;;;;5055208;28;20442;-51
2022/07/24 09:54:45;;;;;;;3.13;2.00;;;30.40;27.30;;;;;;5056071;28;20385;-49
2022/07/24 09:57:25;;;;;;;5.93;1.87;;;30.30;26.90;;;;;;5055504;28;20434;-49
2022/07/24 10:00:03;;;;;;;3.13;1.93;;;30.40;26.80;;;;;;5055634;28;20879;-49
2022/07/24 10:02:32;;;;;;;2.47;1.70;;;30.40;27.00;;;;;;5055826;28;20461;-50
2022/07/24 10:04:59;;;;;;;2.27;1.63;;;30.50;26.90;;;;;;5053945;28;20536;-50
2022/07/24 10:07:27;;;;;;;4.23;1.90;;;30.60;25.60;;;;;;5055239;28;20411;-48
2022/07/24 10:09:55;;;;;;;4.20;2.00;;;30.70;26.50;;;;;;5055255;28;20408;-50
2022/07/24 10:12:29;;;;;;;2.50;1.60;;;30.80;26.80;;;;;;5055980;28;20408;-51
2022/07/24 10:14:57;;;;;;;2.47;1.60;;;30.90;26.60;;;;;;5054929;28;20423;-49
2022/07/24 10:17:48;;;;;;;2.40;1.60;;;31.00;27.30;;;;;;5055694;28;20499;-48
2022/07/24 10:20:36;;;;;;;4.83;2.20;;;31.10;24.30;;;;;;5054970;28;20830;-50
2022/07/24 10:23:05;;;;;;;3.57;2.13;;;31.10;25.50;;;;;;5055205;28;20392;-50
2022/07/24 10:25:52;;;;;;;2.77;1.83;;;31.30;25.90;;;;;;5055164;28;20463;-49
2022/07/24 10:28:38;;;;;;;5.20;1.73;;;31.40;25.90;;;;;;5056965;28;20939;-50
2022/07/24 10:31:07;;;;;;;3.60;2.60;;;31.50;26.20;;;;;;5059603;28;20744;-51
2022/07/24 10:33:36;;;;;;;4.30;2.27;;;31.60;25.60;;;;;;5059432;28;20398;-50
2022/07/24 10:36:26;;;;;;;2.53;1.97;;;31.70;25.20;;;;;;5057352;28;20443;-49
2022/07/24 10:39:08;;;;;;;2.67;1.73;;;31.80;25.60;;;;;;5058732;28;20420;-48
2022/07/24 10:41:34;;;;;;;2.50;1.57;;;31.90;24.30;;;;;;5056788;28;20457;-49
2022/07/24 10:44:20;;;;;;;2.80;1.80;;;32.00;25.60;;;;;;5054169;28;20423;-50
2022/07/24 10:47:13;;;;;;;3.27;1.80;;;32.00;24.90;;;;;;5053983;28;20206;-50
2022/07/24 10:49:49;;;;;;;2.30;1.60;;;32.10;24.20;;;;;;5069226;22;20501;-46
2022/07/24 10:52:29;;;;;;;2.90;1.73;;;32.00;23.30;;;;;;5053558;28;20485;-46
2022/07/24 10:55:29;;;;;;;2.30;1.70;;;32.00;24.00;;;;;;5053674;28;20906;-46
2022/07/24 10:58:16;;;;;;;2.57;2.20;;;32.10;23.90;;;;;;5053401;28;20418;-46
2022/07/24 11:00:50;;;;;;;3.80;1.93;;;32.10;23.80;;;;;;5053401;28;20841;-47
2022/07/24 11:03:22;;;;;;;3.20;1.80;;;32.20;23.30;;;;;;5053541;28;20473;-46
2022/07/24 11:06:11;;;;;;;3.67;2.50;;;32.20;24.20;;;;;;5053120;28;20453;-46
2022/07/24 11:08:51;;;;;;;2.40;2.10;;;32.30;24.20;;;;;;5053423;28;20430;-45
2022/07/24 11:11:21;;;;;;;2.43;1.67;;;32.50;23.90;;;;;;5053635;28;20775;-46
2022/07/24 11:13:52;;;;;;;3.30;2.03;;;32.50;22.60;;;;;;5053278;28;20446;-46
2022/07/24 11:16:21;;;;;;;2.80;1.80;;;32.60;22.50;;;;;;5052914;28;20415;-46
2022/07/24 11:18:52;;;;;;;3.40;1.67;;;32.70;21.90;;;;;;5053420;28;20418;-46
2022/07/24 11:21:46;;;;;;;3.50;2.60;;;32.80;22.10;;;;;;5053133;28;20411;-46
2022/07/24 11:24:19;;;;;;;2.20;1.60;;;32.90;22.00;;;;;;5052896;28;21001;-46
2022/07/24 11:27:14;;;;;;;4.13;2.27;;;32.90;21.00;;;;;;5052837;28;20434;-46
2022/07/24 11:29:40;;;;;;;3.00;2.27;;;33.00;22.50;;;;;;5053193;28;20426;-47
2022/07/24 11:32:14;;;;;;;4.23;2.03;;;33.10;22.50;;;;;;5052830;28;20399;-46
2022/07/24 11:34:47;;;;;;;4.43;1.90;;;33.20;22.60;;;;;;5052981;28;20175;-46
2022/07/24 11:37:13;;;;;;;2.93;1.67;;;33.30;22.40;;;;;;5052903;28;20736;-46
2022/07/24 11:39:41;;;;;;;2.60;2.10;;;33.30;21.20;;;;;;5052931;28;20436;-46
2022/07/24 11:42:10;;;;;;;3.87;2.17;;;33.30;21.00;;;;;;5052892;28;20798;-46
2022/07/24 11:44:41;;;;;;;2.70;1.87;;;33.30;21.00;;;;;;5052753;28;20525;-46
2022/07/24 11:47:07;;;;;;;2.73;1.77;;;33.30;21.40;;;;;;5052392;28;20400;-46
2022/07/24 11:49:54;;;;;;;4.30;2.40;;;33.20;21.70;;;;;;5052268;28;20436;-46
2022/07/24 11:52:25;;;;;;;2.50;1.70;;;33.30;21.40;;;;;;5052461;28;20169;-46
2022/07/24 11:54:53;;;;;;;3.27;2.50;;;33.40;22.10;;;;;;5052535;28;20410;-46
2022/07/24 11:57:24;;;;;;;2.73;2.20;;;33.50;21.30;;;;;;5052084;28;20768;-46
2022/07/24 11:59:51;;;;;;;3.10;2.17;;;33.60;21.00;;;;;;5052565;28;20466;-46
2022/07/24 12:02:18;;;;;;;3.10;1.97;;;33.60;20.90;;;;;;5052393;28;20487;-46
2022/07/24 12:04:45;;;;;;;2.60;2.00;;;33.70;21.30;;;;;;5052576;28;20487;-47
2022/07/24 12:07:23;;;;;;;2.93;2.20;;;33.80;21.00;;;;;;5052102;28;20945;-46
2022/07/24 12:09:53;;;;;;;2.73;1.57;;;33.90;19.90;;;;;;5052215;28;20431;-46
2022/07/24 12:12:34;;;;;;;2.50;1.90;;;33.90;20.60;;;;;;5052156;28;20407;-46
2022/07/24 12:15:01;;;;;;;2.63;1.60;;;34.10;21.20;;;;;;5052298;28;20903;-47
2022/07/24 12:17:27;;;;;;;2.70;1.70;;;34.10;20.80;;;;;;5051940;28;20439;-46
2022/07/24 12:19:56;;;;;;;2.33;1.57;;;34.20;20.30;;;;;;5052182;28;20506;-46
2022/07/24 12:22:23;;;;;;;4.00;2.13;;;34.10;19.50;;;;;;5052732;28;20412;-45
2022/07/24 12:24:50;;;;;;;4.47;2.17;;;34.10;19.70;;;;;;5052495;28;20455;-46
2022/07/24 12:27:37;;;;;;;5.13;1.80;;;34.10;19.60;;;;;;5052396;28;20404;-46
2022/07/24 12:30:25;;;;;;;2.37;1.60;;;34.00;20.00;;;;;;5052354;28;20431;-45
2022/07/24 12:33:21;;;;;;;2.50;1.80;;;34.10;20.50;;;;;;5052266;28;20415;-45
2022/07/24 12:36:08;;;;;;;2.57;1.47;;;34.20;20.40;;;;;;5052726;28;20403;-46
2022/07/24 12:39:00;;;;;;;3.43;1.97;;;34.30;20.00;;;;;;5052713;28;20400;-46
2022/07/24 12:41:27;;;;;;;2.70;1.87;;;34.30;20.00;;;;;;5050319;28;20434;-45
2022/07/24 12:44:02;;;;;;;2.67;1.83;;;34.30;20.30;;;;;;5052336;28;20411;-45
2022/07/24 12:46:36;;;;;;;3.10;2.00;;;34.30;20.20;;;;;;5052117;28;20744;-45
2022/07/24 12:49:03;;;;;;;4.30;2.50;;;34.30;20.50;;;;;;5052108;28;20402;-46
2022/07/24 12:51:54;;;;;;;3.43;2.13;;;34.40;19.70;;;;;;5052735;28;20941;-46
2022/07/24 12:54:23;;;;;;;3.43;1.90;;;34.50;19.50;;;;;;5052320;28;20391;-47